Time;durP1;ratioP1;P1;durP2;ratioP2;P2;SDS_P1;SDS_P2;PMS_P1;PMS_P2;Temp;Humidity;BMP_temperature;BMP_pressure;BME280_temperature;BME280_humidity;BME280_pressure;Samples;Min_cycle;Max_cycle;Signal;HPM_P1;HPM_P2
2023/09/06 00:02:25;;;;;;;1.17;0.80;;;18.50;99.90;;;;;;4416406;32;20070;-63
2023/09/06 00:04:51;;;;;;;0.40;0.40;;;18.50;99.90;;;;;;4400659;32;20053;-63
2023/09/06 00:07:16;;;;;;;0.47;0.47;;;18.50;99.90;;;;;;4399729;32;20129;-61
2023/09/06 00:09:41;;;;;;;0.50;0.40;;;18.50;99.90;;;;;;4413701;32;20090;-63
2023/09/06 00:12:07;;;;;;;0.47;0.47;;;18.40;99.90;;;;;;4413821;32;20165;-62
2023/09/06 00:14:32;;;;;;;1.02;0.85;;;18.40;99.90;;;;;;4412825;32;20077;-63
2023/09/06 00:16:58;;;;;;;0.55;0.50;;;18.40;99.90;;;;;;4415402;32;20061;-63
2023/09/06 00:19:24;;;;;;;0.50;0.50;;;18.50;99.90;;;;;;4415440;32;20607;-63
2023/09/06 00:21:49;;;;;;;0.50;0.50;;;18.50;99.90;;;;;;4414874;32;20423;-62
2023/09/06 00:24:15;;;;;;;0.77;0.45;;;18.50;99.90;;;;;;4411517;32;20135;-62
2023/09/06 00:26:41;;;;;;;0.57;0.57;;;18.50;99.90;;;;;;4413299;32;20465;-62
2023/09/06 00:29:07;;;;;;;0.40;0.40;;;18.50;99.90;;;;;;4414499;32;20078;-62
2023/09/06 00:31:33;;;;;;;0.70;0.43;;;18.30;99.90;;;;;;4415450;32;20074;-61
2023/09/06 00:33:59;;;;;;;0.60;0.60;;;18.30;99.90;;;;;;4412663;32;20081;-61
2023/09/06 00:36:28;;;;;;;0.37;0.37;;;18.30;99.90;;;;;;4413355;32;20834;-63
2023/09/06 00:38:53;;;;;;;0.40;0.40;;;18.20;99.90;;;;;;4413238;32;20564;-60
2023/09/06 00:41:20;;;;;;;0.20;0.20;;;18.10;99.90;;;;;;4413281;32;20089;-62
2023/09/06 00:43:45;;;;;;;0.70;0.57;;;18.10;99.90;;;;;;4413693;32;20884;-61
2023/09/06 00:46:11;;;;;;;0.95;0.85;;;18.00;99.90;;;;;;4413356;32;20060;-63
2023/09/06 00:48:37;;;;;;;12.30;0.65;;;18.00;99.90;;;;;;4396807;32;20525;-63
2023/09/06 00:51:03;;;;;;;0.93;0.65;;;18.00;99.90;;;;;;4415307;32;20074;-61
2023/09/06 00:53:30;;;;;;;0.77;0.40;;;17.90;99.90;;;;;;4399092;32;20077;-61
2023/09/06 00:55:59;;;;;;;0.30;0.30;;;17.90;99.90;;;;;;4414543;32;20065;-62
2023/09/06 00:58:26;;;;;;;0.40;0.40;;;17.80;99.90;;;;;;4416129;32;20074;-63
2023/09/06 01:00:52;;;;;;;0.30;0.30;;;17.90;99.90;;;;;;4411827;32;20821;-62
2023/09/06 01:03:18;;;;;;;2.90;0.50;;;17.90;99.90;;;;;;4408709;32;20084;-60
2023/09/06 01:05:49;;;;;;;0.30;0.30;;;17.90;99.90;;;;;;4412590;32;21371;-63
2023/09/06 01:08:24;;;;;;;0.40;0.40;;;17.80;99.90;;;;;;4412903;32;20093;-63
2023/09/06 01:10:50;;;;;;;0.50;0.50;;;17.80;99.90;;;;;;4412340;32;20102;-62
2023/09/06 01:13:16;;;;;;;0.82;0.60;;;17.80;99.90;;;;;;4414307;32;20077;-58
2023/09/06 01:15:44;;;;;;;0.40;0.40;;;17.80;99.90;;;;;;4412766;32;20061;-60
2023/09/06 01:18:11;;;;;;;0.50;0.50;;;17.80;99.90;;;;;;4412619;32;20062;-63
2023/09/06 01:20:39;;;;;;;0.50;0.50;;;17.80;99.90;;;;;;4412594;32;20140;-61
2023/09/06 01:23:32;;;;;;;0.50;0.50;;;17.80;99.90;;;;;;4411614;32;20070;-62
2023/09/06 01:25:57;;;;;;;0.62;0.62;;;17.80;99.90;;;;;;4397228;32;20073;-60
2023/09/06 01:28:27;;;;;;;0.65;0.47;;;17.60;99.90;;;;;;4397739;32;20101;-63
2023/09/06 01:30:54;;;;;;;0.62;0.62;;;17.60;99.90;;;;;;4398621;32;20596;-62
2023/09/06 01:33:19;;;;;;;1.83;0.90;;;17.60;99.90;;;;;;4411902;32;20602;-61
2023/09/06 01:35:45;;;;;;;0.60;0.60;;;17.60;99.90;;;;;;4411723;32;20081;-63
2023/09/06 01:38:11;;;;;;;0.50;0.50;;;17.70;99.90;;;;;;4410023;32;20084;-63
2023/09/06 01:40:37;;;;;;;0.50;0.50;;;17.60;99.90;;;;;;4396856;32;20085;-62
2023/09/06 01:43:03;;;;;;;2.37;1.37;;;17.50;99.90;;;;;;4415249;32;20637;-62
2023/09/06 01:45:29;;;;;;;1.30;1.00;;;17.60;99.90;;;;;;4412945;32;20135;-59
2023/09/06 01:47:55;;;;;;;1.02;0.60;;;17.60;99.90;;;;;;4412334;32;20106;-61
2023/09/06 01:50:20;;;;;;;0.70;0.70;;;17.50;99.90;;;;;;4400198;32;20062;-62
2023/09/06 01:52:46;;;;;;;0.40;0.40;;;17.40;99.90;;;;;;4399322;32;20619;-62
2023/09/06 01:55:12;;;;;;;0.50;0.50;;;17.40;99.90;;;;;;4411293;32;20105;-62
2023/09/06 01:57:38;;;;;;;0.43;0.43;;;17.40;99.90;;;;;;4399250;32;20089;-60
2023/09/06 02:00:38;;;;;;;1.75;1.25;;;17.40;99.90;;;;;;4411743;32;20089;-61
2023/09/06 02:02:50;;;;;;;0.52;0.52;;;17.40;99.90;;;;;;4401800;32;20451;-62
2023/09/06 02:05:16;;;;;;;0.75;0.70;;;17.40;99.90;;;;;;4390739;32;20544;-58
2023/09/06 02:07:42;;;;;;;1.30;1.10;;;17.40;99.90;;;;;;4391345;32;20070;-58
2023/09/06 02:10:08;;;;;;;0.47;0.47;;;17.40;99.90;;;;;;4413452;32;20837;-59
2023/09/06 02:12:34;;;;;;;0.70;0.70;;;17.30;99.90;;;;;;4396951;32;20077;-57
2023/09/06 02:14:59;;;;;;;0.50;0.50;;;17.20;99.90;;;;;;4399024;32;20405;-62
2023/09/06 02:17:25;;;;;;;0.80;0.68;;;17.20;99.90;;;;;;4414883;32;20615;-62
2023/09/06 02:19:50;;;;;;;0.65;0.50;;;17.20;99.90;;;;;;4414737;32;20070;-62
2023/09/06 02:22:18;;;;;;;0.68;0.65;;;17.20;99.90;;;;;;4411601;32;20114;-59
2023/09/06 02:24:43;;;;;;;0.70;0.70;;;17.20;99.90;;;;;;4411826;32;20426;-62
2023/09/06 02:27:10;;;;;;;0.40;0.40;;;17.20;99.90;;;;;;4415861;32;20069;-62
2023/09/06 02:29:35;;;;;;;0.57;0.57;;;17.20;99.90;;;;;;4419332;32;20143;-62
2023/09/06 02:32:01;;;;;;;0.43;0.43;;;17.20;99.90;;;;;;4416008;32;20121;-60
2023/09/06 02:34:26;;;;;;;0.73;0.73;;;17.20;99.90;;;;;;4417716;32;20074;-62
2023/09/06 02:36:52;;;;;;;0.60;0.60;;;17.20;99.90;;;;;;4413094;32;20066;-63
2023/09/06 02:39:18;;;;;;;0.80;0.80;;;17.10;99.90;;;;;;4416774;32;20094;-62
2023/09/06 02:41:43;;;;;;;6.03;1.45;;;17.00;99.90;;;;;;4410422;32;20070;-63
2023/09/06 02:44:09;;;;;;;0.80;0.75;;;16.90;99.90;;;;;;4412102;32;20093;-62
2023/09/06 02:46:34;;;;;;;0.57;0.57;;;16.90;99.90;;;;;;4411696;32;20180;-63
2023/09/06 02:49:11;;;;;;;1.48;0.80;;;16.80;99.90;;;;;;4415189;32;20062;-61
2023/09/06 02:51:42;;;;;;;0.85;0.60;;;16.80;99.90;;;;;;4413095;32;20097;-59
2023/09/06 02:54:09;;;;;;;0.50;0.50;;;16.90;99.90;;;;;;4402288;32;20568;-62
2023/09/06 02:56:38;;;;;;;0.88;0.88;;;16.80;99.90;;;;;;4398821;32;20077;-61
2023/09/06 02:59:07;;;;;;;0.50;0.50;;;16.70;99.90;;;;;;4414321;32;20086;-62
2023/09/06 03:01:35;;;;;;;6.15;1.37;;;16.70;99.90;;;;;;4401799;32;20078;-63
2023/09/06 03:04:06;;;;;;;0.60;0.60;;;16.70;99.90;;;;;;4417402;32;20191;-62
2023/09/06 03:06:33;;;;;;;0.43;0.43;;;16.70;99.90;;;;;;4415091;32;20551;-62
2023/09/06 03:08:59;;;;;;;0.35;0.35;;;16.90;99.90;;;;;;4416580;32;20528;-63
2023/09/06 03:11:25;;;;;;;0.60;0.60;;;16.90;99.90;;;;;;4400216;32;21020;-62
2023/09/06 03:13:55;;;;;;;0.40;0.40;;;16.80;99.90;;;;;;4415227;32;20093;-62
2023/09/06 03:16:22;;;;;;;0.65;0.65;;;16.70;99.90;;;;;;4413431;32;20189;-60
2023/09/06 03:18:49;;;;;;;0.62;0.55;;;16.70;99.90;;;;;;4415130;32;20203;-61
2023/09/06 03:21:17;;;;;;;1.17;0.73;;;16.60;99.90;;;;;;4402480;32;20593;-61
2023/09/06 03:23:44;;;;;;;0.82;0.70;;;16.60;99.90;;;;;;4402308;32;20137;-64
2023/09/06 03:26:10;;;;;;;0.88;0.82;;;16.70;99.90;;;;;;4415286;32;20188;-66
2023/09/06 03:28:43;;;;;;;1.65;0.98;;;16.60;99.90;;;;;;4416875;32;20082;-62
2023/09/06 03:31:09;;;;;;;0.50;0.50;;;16.60;99.90;;;;;;4413974;32;20074;-63
2023/09/06 03:33:35;;;;;;;0.65;0.65;;;16.60;99.90;;;;;;4404489;32;20069;-61
2023/09/06 03:36:07;;;;;;;0.30;0.30;;;16.60;99.90;;;;;;4415837;32;20402;-63
2023/09/06 03:38:33;;;;;;;0.50;0.50;;;16.60;99.90;;;;;;4393519;32;20070;-62
2023/09/06 03:41:02;;;;;;;0.30;0.30;;;16.50;99.90;;;;;;4417093;32;20120;-63
2023/09/06 03:43:30;;;;;;;1.27;0.50;;;16.30;99.90;;;;;;4416939;32;20090;-61
2023/09/06 03:45:58;;;;;;;0.52;0.50;;;16.30;99.90;;;;;;4417439;32;20054;-63
2023/09/06 03:48:27;;;;;;;0.55;0.55;;;16.30;99.90;;;;;;4400382;32;20560;-61
2023/09/06 03:50:55;;;;;;;0.37;0.37;;;16.40;99.90;;;;;;4415418;32;20517;-63
2023/09/06 03:53:23;;;;;;;0.57;0.57;;;16.50;99.90;;;;;;4416163;32;20069;-62
2023/09/06 03:55:50;;;;;;;0.75;0.68;;;16.50;99.90;;;;;;4414165;32;20053;-63
2023/09/06 03:58:15;;;;;;;0.62;0.60;;;16.40;99.90;;;;;;4413570;32;20186;-63
2023/09/06 04:00:43;;;;;;;1.05;0.52;;;16.30;99.90;;;;;;4402639;32;20129;-63
2023/09/06 04:03:09;;;;;;;0.47;0.43;;;16.30;99.90;;;;;;4399781;32;20154;-64
2023/09/06 04:05:34;;;;;;;0.40;0.40;;;16.30;99.90;;;;;;4400303;32;20111;-62
2023/09/06 04:08:04;;;;;;;0.90;0.75;;;16.20;99.90;;;;;;4415709;32;20442;-63
2023/09/06 04:10:38;;;;;;;0.60;0.60;;;16.30;99.90;;;;;;4400422;32;20222;-62
2023/09/06 04:13:07;;;;;;;1.02;0.93;;;16.30;99.90;;;;;;4400013;32;20148;-62
2023/09/06 04:15:36;;;;;;;0.40;0.40;;;16.30;99.90;;;;;;4400878;32;20085;-63
2023/09/06 04:18:03;;;;;;;0.55;0.55;;;16.30;99.90;;;;;;4402272;32;20070;-60
2023/09/06 04:20:31;;;;;;;0.40;0.40;;;16.20;99.90;;;;;;4412667;32;20556;-60
2023/09/06 04:22:57;;;;;;;0.40;0.35;;;16.10;99.90;;;;;;4409624;32;20120;-63
2023/09/06 04:25:26;;;;;;;0.40;0.40;;;16.10;99.90;;;;;;4398610;32;20065;-60
2023/09/06 04:27:54;;;;;;;1.20;0.62;;;16.10;99.90;;;;;;4414303;32;20513;-61
2023/09/06 04:30:22;;;;;;;0.52;0.52;;;16.20;99.90;;;;;;4387578;32;20813;-62
2023/09/06 04:32:47;;;;;;;0.45;0.45;;;16.20;99.90;;;;;;4415086;32;20646;-62
2023/09/06 04:35:15;;;;;;;3.35;1.10;;;16.20;99.90;;;;;;4410896;32;20132;-58
2023/09/06 04:37:41;;;;;;;4.90;0.93;;;16.20;99.90;;;;;;4399483;32;20204;-59
2023/09/06 04:40:11;;;;;;;0.68;0.68;;;16.10;99.90;;;;;;4412700;32;20069;-59
2023/09/06 04:42:39;;;;;;;0.93;0.90;;;16.10;99.90;;;;;;4388893;32;20081;-59
2023/09/06 04:45:06;;;;;;;0.75;0.52;;;16.20;99.90;;;;;;4413511;32;20071;-59
2023/09/06 04:47:32;;;;;;;2.80;1.05;;;16.30;99.90;;;;;;4413951;32;20069;-58
2023/09/06 04:49:58;;;;;;;0.52;0.52;;;16.30;99.90;;;;;;4412915;32;20046;-59
2023/09/06 04:52:26;;;;;;;0.40;0.40;;;16.30;99.90;;;;;;4414699;32;20484;-59
2023/09/06 04:54:52;;;;;;;1.35;0.45;;;16.20;99.90;;;;;;4414338;32;20439;-59
2023/09/06 04:57:17;;;;;;;0.30;0.30;;;16.20;99.90;;;;;;4413968;32;20065;-59
2023/09/06 04:59:43;;;;;;;0.70;0.70;;;16.20;99.90;;;;;;4412250;32;20157;-59
2023/09/06 05:02:08;;;;;;;0.70;0.70;;;16.30;99.90;;;;;;4410710;32;20062;-58
2023/09/06 05:04:36;;;;;;;3.30;0.95;;;16.30;99.90;;;;;;4411696;32;20552;-61
2023/09/06 05:07:02;;;;;;;3.00;0.88;;;16.30;99.90;;;;;;4398376;32;20054;-59
2023/09/06 05:09:28;;;;;;;0.50;0.50;;;16.40;99.90;;;;;;4412194;32;20094;-59
2023/09/06 05:11:54;;;;;;;1.35;0.70;;;16.40;99.90;;;;;;4412510;32;20540;-59
2023/09/06 05:14:20;;;;;;;2.25;1.17;;;16.40;99.90;;;;;;4412161;32;20530;-58
2023/09/06 05:16:45;;;;;;;0.40;0.40;;;16.50;99.90;;;;;;4394145;32;20112;-60
2023/09/06 05:19:10;;;;;;;0.55;0.50;;;16.40;99.90;;;;;;4402521;32;20077;-60
2023/09/06 05:21:36;;;;;;;0.60;0.60;;;16.50;99.90;;;;;;4411789;32;20081;-58
2023/09/06 05:24:01;;;;;;;0.45;0.45;;;16.60;99.90;;;;;;4411564;32;20508;-58
2023/09/06 05:26:28;;;;;;;0.50;0.50;;;16.60;99.90;;;;;;4400894;32;20069;-59
2023/09/06 05:28:54;;;;;;;2.10;0.50;;;16.70;99.90;;;;;;4382332;32;20086;-60
2023/09/06 05:31:20;;;;;;;0.88;0.88;;;16.70;99.90;;;;;;4386620;32;20240;-61
2023/09/06 05:33:46;;;;;;;0.40;0.40;;;16.70;99.90;;;;;;4394198;32;20557;-61
2023/09/06 05:36:12;;;;;;;1.02;0.65;;;16.80;99.90;;;;;;4406046;32;20524;-62
2023/09/06 05:38:39;;;;;;;0.85;0.70;;;16.80;99.90;;;;;;4404140;32;20567;-60
2023/09/06 05:41:06;;;;;;;22.33;2.40;;;16.90;99.90;;;;;;4382890;32;20516;-61
2023/09/06 05:43:32;;;;;;;1.95;0.98;;;16.90;99.90;;;;;;4405069;32;20539;-60
2023/09/06 05:45:58;;;;;;;0.60;0.60;;;17.00;99.90;;;;;;4369922;32;20089;-63
2023/09/06 05:48:24;;;;;;;3.80;0.65;;;17.10;99.90;;;;;;4394082;32;20144;-61
2023/09/06 05:50:50;;;;;;;1.77;0.95;;;17.10;99.90;;;;;;4393663;32;20105;-63
2023/09/06 05:53:15;;;;;;;1.02;0.62;;;17.10;99.90;;;;;;4376292;32;20114;-65
2023/09/06 05:55:41;;;;;;;0.55;0.55;;;17.20;99.90;;;;;;4384554;32;20505;-61
2023/09/06 05:58:07;;;;;;;3.47;1.23;;;17.20;99.90;;;;;;4381178;32;20085;-60
2023/09/06 06:00:34;;;;;;;1.02;0.90;;;17.20;99.90;;;;;;4369527;32;20078;-63
2023/09/06 06:03:01;;;;;;;1.42;0.82;;;17.30;99.90;;;;;;4359733;32;20356;-62
2023/09/06 06:05:28;;;;;;;0.40;0.40;;;17.40;99.90;;;;;;4378212;32;20102;-61
2023/09/06 06:07:54;;;;;;;0.60;0.60;;;17.50;99.90;;;;;;4372750;32;20674;-61
2023/09/06 06:10:19;;;;;;;0.60;0.60;;;17.60;99.90;;;;;;4390997;32;20104;-61
2023/09/06 06:12:46;;;;;;;0.50;0.50;;;17.70;99.90;;;;;;4376516;32;20118;-63
2023/09/06 06:15:12;;;;;;;0.50;0.50;;;17.80;99.90;;;;;;4377994;32;20077;-63
2023/09/06 06:17:37;;;;;;;2.05;0.70;;;17.80;99.90;;;;;;4389252;32;20102;-60
2023/09/06 06:20:06;;;;;;;0.50;0.50;;;17.90;99.90;;;;;;4368726;32;20577;-61
2023/09/06 06:22:37;;;;;;;0.80;0.80;;;18.00;99.90;;;;;;4368298;32;20351;-62
2023/09/06 06:25:03;;;;;;;2.72;1.20;;;18.10;99.90;;;;;;4376143;32;20077;-63
2023/09/06 06:27:29;;;;;;;0.68;0.65;;;18.20;99.90;;;;;;4378701;32;20077;-59
2023/09/06 06:29:54;;;;;;;6.50;1.58;;;18.20;99.90;;;;;;4386831;32;20706;-61
2023/09/06 06:32:20;;;;;;;0.47;0.47;;;18.20;99.90;;;;;;4370383;32;20090;-61
2023/09/06 06:34:49;;;;;;;0.40;0.40;;;18.30;99.90;;;;;;4381039;32;20100;-62
2023/09/06 06:37:15;;;;;;;1.77;1.12;;;18.30;99.90;;;;;;4381712;32;20187;-62
2023/09/06 06:39:40;;;;;;;0.60;0.60;;;18.40;99.90;;;;;;4382065;32;20161;-63
2023/09/06 06:42:06;;;;;;;1.48;1.05;;;18.50;99.90;;;;;;4378329;32;20923;-62
2023/09/06 06:44:32;;;;;;;0.55;0.55;;;18.50;99.90;;;;;;4369460;32;20195;-62
2023/09/06 06:46:59;;;;;;;1.02;0.62;;;18.60;99.90;;;;;;4386183;32;20527;-62
2023/09/06 06:49:25;;;;;;;2.62;1.23;;;18.80;99.90;;;;;;4362864;32;20813;-62
2023/09/06 06:51:51;;;;;;;4.20;0.70;;;18.90;99.90;;;;;;4391593;32;20073;-63
2023/09/06 06:54:17;;;;;;;0.98;0.62;;;19.00;99.90;;;;;;4386548;32;20468;-63
2023/09/06 06:56:43;;;;;;;0.93;0.85;;;19.10;99.90;;;;;;4364319;32;20106;-62
2023/09/06 06:59:09;;;;;;;0.50;0.50;;;19.20;99.90;;;;;;4384797;32;20188;-64
2023/09/06 07:01:36;;;;;;;0.70;0.70;;;19.20;99.90;;;;;;4386887;32;20173;-63
2023/09/06 07:04:04;;;;;;;0.80;0.80;;;19.30;99.90;;;;;;4369168;32;20369;-63
2023/09/06 07:06:30;;;;;;;0.57;0.50;;;19.40;99.90;;;;;;4367203;32;20089;-63
2023/09/06 07:08:56;;;;;;;0.40;0.40;;;19.50;99.90;;;;;;4387793;32;20629;-63
2023/09/06 07:11:22;;;;;;;2.47;1.42;;;19.60;99.90;;;;;;4383284;32;20193;-63
2023/09/06 07:13:49;;;;;;;0.70;0.70;;;19.60;99.90;;;;;;4383664;32;20084;-63
2023/09/06 07:16:16;;;;;;;0.50;0.50;;;19.60;99.90;;;;;;4372613;32;20218;-64
2023/09/06 07:18:42;;;;;;;0.73;0.73;;;19.70;99.90;;;;;;4384950;32;20106;-62
2023/09/06 07:21:07;;;;;;;0.40;0.40;;;19.80;99.90;;;;;;4402459;32;20569;-61
2023/09/06 07:23:33;;;;;;;1.45;1.30;;;19.80;99.90;;;;;;4387256;32;20583;-63
2023/09/06 07:25:58;;;;;;;0.50;0.50;;;19.80;99.90;;;;;;4384368;32;21130;-63
2023/09/06 07:28:24;;;;;;;0.80;0.80;;;19.90;99.90;;;;;;4376692;32;20101;-64
2023/09/06 07:30:50;;;;;;;0.40;0.40;;;20.00;99.90;;;;;;4350384;32;20236;-62
2023/09/06 07:33:16;;;;;;;0.40;0.40;;;20.00;99.90;;;;;;4352892;32;20702;-62
2023/09/06 07:35:42;;;;;;;0.30;0.30;;;20.10;99.90;;;;;;4375669;32;20583;-63
2023/09/06 07:38:08;;;;;;;1.52;0.73;;;20.20;99.90;;;;;;4384938;32;20257;-62
2023/09/06 07:40:33;;;;;;;0.40;0.40;;;20.30;99.90;;;;;;4398471;32;20090;-65
2023/09/06 07:42:59;;;;;;;1.30;0.93;;;20.40;99.90;;;;;;4369477;32;20707;-62
2023/09/06 07:45:24;;;;;;;0.40;0.40;;;20.40;99.90;;;;;;4390912;32;20441;-63
2023/09/06 07:47:51;;;;;;;0.98;0.88;;;20.50;99.90;;;;;;4362783;32;20077;-63
2023/09/06 07:50:17;;;;;;;3.55;0.70;;;20.60;99.90;;;;;;4355503;32;20094;-63
2023/09/06 07:52:43;;;;;;;0.70;0.70;;;20.60;99.90;;;;;;4353865;32;20105;-63
2023/09/06 07:55:08;;;;;;;0.52;0.47;;;20.60;99.90;;;;;;4374787;32;20086;-66
2023/09/06 07:57:34;;;;;;;0.30;0.30;;;20.70;99.90;;;;;;4388700;32;20122;-62
2023/09/06 08:00:00;;;;;;;3.00;1.12;;;20.80;99.90;;;;;;4376940;32;20192;-64
2023/09/06 08:02:25;;;;;;;0.50;0.50;;;20.90;99.90;;;;;;4388758;32;20140;-64
2023/09/06 08:04:51;;;;;;;0.57;0.57;;;21.00;99.90;;;;;;4393776;32;20102;-64
2023/09/06 08:07:17;;;;;;;0.93;0.55;;;21.10;99.90;;;;;;4382678;32;20088;-63
2023/09/06 08:09:43;;;;;;;0.40;0.40;;;21.20;99.90;;;;;;4390311;32;22395;-62
2023/09/06 08:12:09;;;;;;;0.20;0.20;;;21.20;99.90;;;;;;4387344;32;20235;-63
2023/09/06 08:14:35;;;;;;;0.50;0.50;;;21.20;99.90;;;;;;4382525;32;20540;-63
2023/09/06 08:17:01;;;;;;;1.25;1.00;;;21.40;99.90;;;;;;4379369;32;20573;-61
2023/09/06 08:19:26;;;;;;;2.50;0.82;;;21.50;99.90;;;;;;4389279;32;20086;-66
2023/09/06 08:21:52;;;;;;;2.35;0.52;;;21.60;99.90;;;;;;4390684;32;20152;-62
2023/09/06 08:24:18;;;;;;;1.85;0.90;;;21.70;99.90;;;;;;4383458;32;20128;-63
2023/09/06 08:26:45;;;;;;;0.70;0.57;;;21.80;99.90;;;;;;4375030;32;20188;-63
2023/09/06 08:29:11;;;;;;;0.40;0.40;;;21.90;99.90;;;;;;4380124;32;20895;-64
2023/09/06 08:31:36;;;;;;;0.37;0.37;;;22.10;99.90;;;;;;4382163;32;20199;-60
2023/09/06 08:34:02;;;;;;;1.00;0.73;;;22.10;99.90;;;;;;4365895;32;20081;-63
2023/09/06 08:36:27;;;;;;;0.20;0.20;;;22.20;99.90;;;;;;4359890;32;20217;-64
2023/09/06 08:38:53;;;;;;;0.60;0.47;;;22.30;99.90;;;;;;4362863;32;20077;-62
2023/09/06 08:41:20;;;;;;;0.62;0.40;;;22.40;99.90;;;;;;4383872;32;20093;-63
2023/09/06 08:43:46;;;;;;;0.50;0.50;;;22.50;99.90;;;;;;4385747;32;20082;-63
2023/09/06 08:46:19;;;;;;;0.80;0.57;;;22.60;99.90;;;;;;4365170;32;20974;-61
2023/09/06 08:48:46;;;;;;;0.40;0.40;;;22.70;99.90;;;;;;4359632;32;22062;-60
2023/09/06 08:51:13;;;;;;;1.75;0.60;;;22.80;99.90;;;;;;4386599;32;20161;-63
2023/09/06 08:53:42;;;;;;;0.90;0.75;;;22.90;99.90;;;;;;4362881;32;20191;-63
2023/09/06 08:56:08;;;;;;;0.50;0.50;;;23.00;99.90;;;;;;4369223;32;20074;-60
2023/09/06 08:58:35;;;;;;;1.00;0.60;;;23.20;99.90;;;;;;4358583;32;20557;-64
2023/09/06 09:01:04;;;;;;;0.50;0.50;;;23.20;99.90;;;;;;4380781;32;20118;-62
2023/09/06 09:03:31;;;;;;;2.83;1.05;;;23.40;99.90;;;;;;4377748;32;20097;-63
2023/09/06 09:06:00;;;;;;;0.40;0.40;;;23.50;99.90;;;;;;4369114;32;20371;-64
2023/09/06 09:08:29;;;;;;;0.40;0.40;;;23.50;99.90;;;;;;4370869;32;20559;-61
2023/09/06 09:11:15;;;;;;;0.30;0.30;;;23.60;99.90;;;;;;4365911;32;20100;-62
2023/09/06 09:13:42;;;;;;;0.32;0.32;;;23.70;99.90;;;;;;4370059;32;20123;-62
2023/09/06 09:16:10;;;;;;;0.30;0.30;;;23.90;99.90;;;;;;4373634;32;20094;-62
2023/09/06 09:18:38;;;;;;;2.25;0.62;;;24.00;99.90;;;;;;4354882;32;20105;-62
2023/09/06 09:21:04;;;;;;;1.17;0.85;;;24.10;99.90;;;;;;4371507;32;20085;-63
2023/09/06 09:23:32;;;;;;;0.32;0.32;;;24.30;99.90;;;;;;4358163;32;21906;-65
2023/09/06 09:25:58;;;;;;;0.22;0.22;;;24.40;99.90;;;;;;4355491;32;20118;-64
2023/09/06 09:28:23;;;;;;;5.55;1.15;;;24.50;99.90;;;;;;4344924;32;20097;-64
2023/09/06 09:30:50;;;;;;;0.30;0.30;;;24.70;99.90;;;;;;4343354;32;20320;-65
2023/09/06 09:33:16;;;;;;;0.93;0.40;;;24.90;99.90;;;;;;4351663;32;20152;-63
2023/09/06 09:35:43;;;;;;;0.47;0.43;;;25.00;99.90;;;;;;4383464;32;20172;-63
2023/09/06 09:38:11;;;;;;;0.30;0.30;;;25.10;99.90;;;;;;4364493;32;20861;-63
2023/09/06 09:40:37;;;;;;;0.17;0.13;;;25.10;99.90;;;;;;4384321;32;20085;-64
2023/09/06 09:43:04;;;;;;;5.30;1.00;;;25.30;99.90;;;;;;4385215;32;20073;-68
2023/09/06 09:45:39;;;;;;;0.32;0.32;;;25.50;99.90;;;;;;4377837;32;20449;-64
2023/09/06 09:48:07;;;;;;;0.20;0.20;;;25.50;99.90;;;;;;4375185;32;20082;-64
2023/09/06 09:50:34;;;;;;;1.10;0.90;;;25.70;99.90;;;;;;4389826;32;20098;-62
2023/09/06 09:53:02;;;;;;;0.62;0.62;;;25.80;99.90;;;;;;4347946;32;20818;-62
2023/09/06 09:55:31;;;;;;;3.62;0.50;;;26.00;99.90;;;;;;4390007;32;20090;-63
2023/09/06 09:57:58;;;;;;;0.37;0.32;;;26.10;99.90;;;;;;4383177;32;20086;-63
2023/09/06 10:00:27;;;;;;;0.32;0.32;;;26.10;99.90;;;;;;4368612;32;20755;-62
2023/09/06 10:02:56;;;;;;;1.50;0.40;;;26.20;99.90;;;;;;4376294;32;20091;-63
2023/09/06 10:05:23;;;;;;;0.88;0.30;;;26.40;99.90;;;;;;4383951;32;20548;-62
2023/09/06 10:07:49;;;;;;;7.22;0.62;;;26.40;99.90;;;;;;4363058;32;20550;-64
2023/09/06 10:10:16;;;;;;;0.45;0.40;;;26.50;99.90;;;;;;4361061;32;20649;-64
2023/09/06 10:12:44;;;;;;;0.25;0.25;;;26.60;99.90;;;;;;4377379;32;20468;-61
2023/09/06 10:15:13;;;;;;;0.57;0.37;;;27.00;99.90;;;;;;4354691;32;21142;-63
2023/09/06 10:17:40;;;;;;;0.20;0.20;;;27.30;99.90;;;;;;4348105;32;20522;-63
2023/09/06 10:20:23;;;;;;;0.50;0.45;;;27.20;99.90;;;;;;4368148;32;20176;-63
2023/09/06 10:22:52;;;;;;;0.30;0.30;;;27.40;99.90;;;;;;4362523;32;20093;-65
2023/09/06 10:25:18;;;;;;;0.10;0.10;;;27.50;99.90;;;;;;4387999;32;20152;-65
2023/09/06 10:27:49;;;;;;;0.22;0.17;;;27.60;99.90;;;;;;4385310;32;20149;-63
2023/09/06 10:30:18;;;;;;;0.30;0.30;;;27.70;99.90;;;;;;4390169;32;20102;-64
2023/09/06 10:32:46;;;;;;;0.30;0.30;;;28.00;99.70;;;;;;4387978;32;20090;-64
2023/09/06 10:35:30;;;;;;;1.02;0.55;;;28.20;98.80;;;;;;4382115;32;20105;-63
2023/09/06 10:38:05;;;;;;;0.55;0.55;;;28.10;98.60;;;;;;4377443;32;20065;-63
2023/09/06 10:40:53;;;;;;;0.85;0.45;;;28.20;99.20;;;;;;4385397;32;20091;-65
2023/09/06 10:43:23;;;;;;;0.50;0.40;;;28.10;99.30;;;;;;4369816;32;20679;-63
2023/09/06 10:46:18;;;;;;;0.20;0.20;;;28.10;98.50;;;;;;4398803;32;20560;-65
2023/09/06 10:49:20;;;;;;;0.43;0.37;;;28.00;99.00;;;;;;4387348;32;20846;-63
2023/09/06 10:52:03;;;;;;;1.45;0.57;;;28.20;98.00;;;;;;4342742;32;21494;-64
2023/09/06 10:54:35;;;;;;;0.13;0.13;;;28.60;97.10;;;;;;4353924;32;20155;-66
2023/09/06 10:57:03;;;;;;;0.55;0.30;;;28.60;97.50;;;;;;4366120;32;20541;-62
2023/09/06 10:59:29;;;;;;;0.40;0.40;;;28.90;96.50;;;;;;4369942;32;20603;-63
2023/09/06 11:02:16;;;;;;;0.30;0.30;;;28.90;95.70;;;;;;4369453;32;20341;-64
2023/09/06 11:04:42;;;;;;;0.28;0.15;;;29.10;95.50;;;;;;4372043;32;21675;-65
2023/09/06 11:07:10;;;;;;;0.22;0.22;;;29.10;95.70;;;;;;4358284;32;20745;-63
2023/09/06 11:09:53;;;;;;;0.45;0.35;;;29.10;95.30;;;;;;4378429;32;21606;-64
2023/09/06 11:12:18;;;;;;;0.30;0.30;;;29.50;94.80;;;;;;4382824;32;21039;-65
2023/09/06 11:14:47;;;;;;;0.30;0.30;;;29.50;95.00;;;;;;4369851;32;20853;-65
2023/09/06 11:17:21;;;;;;;1.27;0.90;;;29.80;94.40;;;;;;4360464;32;20555;-65
2023/09/06 11:19:47;;;;;;;0.55;0.55;;;29.90;94.00;;;;;;4359488;32;20077;-66
2023/09/06 11:22:13;;;;;;;2.00;0.80;;;29.90;94.20;;;;;;4361617;32;21201;-63
2023/09/06 11:24:38;;;;;;;0.30;0.30;;;29.90;94.70;;;;;;4377849;32;20201;-65
2023/09/06 11:27:16;;;;;;;0.57;0.57;;;30.10;93.10;;;;;;4370321;32;20167;-65
2023/09/06 11:29:43;;;;;;;0.20;0.20;;;30.40;93.00;;;;;;4362942;32;22051;-65
2023/09/06 11:32:11;;;;;;;0.20;0.20;;;30.60;92.60;;;;;;4374279;32;20891;-66
2023/09/06 11:34:45;;;;;;;0.13;0.13;;;30.70;92.50;;;;;;4371963;32;20082;-65
2023/09/06 11:37:14;;;;;;;0.10;0.10;;;31.10;91.80;;;;;;4365140;32;20104;-65
2023/09/06 11:39:41;;;;;;;0.15;0.15;;;31.70;90.30;;;;;;4365674;32;20115;-66
2023/09/06 11:42:10;;;;;;;0.37;0.37;;;32.00;89.70;;;;;;4357130;32;20319;-65
2023/09/06 11:44:41;;;;;;;0.20;0.20;;;32.30;88.70;;;;;;4358589;32;20110;-66
2023/09/06 11:47:06;;;;;;;;;;;32.00;88.80;;;;;;4344481;32;148426;-65
2023/09/06 11:49:34;;;;;;;0.65;0.65;;;31.80;89.50;;;;;;4363976;32;21124;-64
2023/09/06 11:52:04;;;;;;;0.13;0.13;;;31.80;87.70;;;;;;4382138;32;20209;-62
2023/09/06 11:54:31;;;;;;;6.80;1.65;;;32.20;85.80;;;;;;4377185;32;20094;-65
2023/09/06 11:56:57;;;;;;;1.02;0.60;;;32.20;86.50;;;;;;4380276;32;20089;-64
2023/09/06 11:59:24;;;;;;;4.03;0.88;;;32.20;86.60;;;;;;4384138;32;20072;-65
2023/09/06 12:01:54;;;;;;;0.60;0.50;;;32.20;86.00;;;;;;4373440;32;20148;-65
2023/09/06 12:04:22;;;;;;;0.22;0.22;;;32.50;86.20;;;;;;4374897;32;20094;-65
2023/09/06 12:06:51;;;;;;;0.47;0.43;;;32.60;87.00;;;;;;4391444;32;20525;-65
2023/09/06 12:09:18;;;;;;;0.32;0.32;;;;;;;;;;4395495;32;20101;-62
2023/09/06 12:11:44;;;;;;;0.20;0.20;;;;;;;;;;4384277;32;20081;-65
2023/09/06 12:14:10;;;;;;;0.40;0.40;;;;;;;;;;4372649;32;21054;-66
2023/09/06 12:16:36;;;;;;;0.10;0.10;;;33.60;79.60;;;;;;4370073;32;20102;-65
2023/09/06 12:19:03;;;;;;;0.75;0.20;;;33.90;81.30;;;;;;4385184;32;20536;-64
2023/09/06 12:21:28;;;;;;;0.32;0.30;;;33.90;79.70;;;;;;4370928;32;20084;-65
2023/09/06 12:23:54;;;;;;;0.28;0.28;;;34.20;79.50;;;;;;4387990;32;20112;-65
2023/09/06 12:26:20;;;;;;;0.80;0.47;;;;;;;;;;4386813;32;20196;-65
2023/09/06 12:28:47;;;;;;;1.30;0.88;;;34.40;77.60;;;;;;4385417;32;20081;-62
2023/09/06 12:31:14;;;;;;;0.30;0.30;;;34.40;76.60;;;;;;4383599;32;20133;-66
2023/09/06 12:33:40;;;;;;;0.20;0.20;;;34.30;73.00;;;;;;4383845;32;20101;-65
2023/09/06 12:36:08;;;;;;;0.20;0.20;;;34.40;71.00;;;;;;4379412;32;20626;-67
2023/09/06 12:38:33;;;;;;;0.47;0.30;;;34.20;73.30;;;;;;4369509;32;20141;-66
2023/09/06 12:41:00;;;;;;;0.20;0.20;;;34.40;73.10;;;;;;4368153;32;20094;-65
2023/09/06 12:43:26;;;;;;;0.30;0.30;;;34.60;73.10;;;;;;4383002;32;21063;-66
2023/09/06 12:45:53;;;;;;;0.20;0.20;;;34.80;72.00;;;;;;4382908;32;20293;-67
2023/09/06 12:48:21;;;;;;;0.10;0.10;;;35.10;72.60;;;;;;4389238;32;20085;-64
2023/09/06 12:50:48;;;;;;;0.52;0.40;;;35.60;73.90;;;;;;4385581;32;20093;-66